sensor_id;sensor_type;location;lat;lon;timestamp;P1;durP1;ratioP1;P2;durP2;ratioP2
35243;SDS011;37916;52.160;21.066;2022-12-18T00:00:38;27.20;;;14.03;;
35243;SDS011;37916;52.160;21.066;2022-12-18T00:10:43;26.13;;;14.80;;
35243;SDS011;37916;52.160;21.066;2022-12-18T00:20:44;24.13;;;13.77;;
35243;SDS011;37916;52.160;21.066;2022-12-18T00:30:45;26.70;;;14.67;;
35243;SDS011;37916;52.160;21.066;2022-12-18T00:40:45;30.87;;;15.20;;
35243;SDS011;37916;52.160;21.066;2022-12-18T00:50:47;27.06;;;14.58;;
35243;SDS011;37916;52.160;21.066;2022-12-18T01:00:48;29.17;;;14.83;;
35243;SDS011;37916;52.160;21.066;2022-12-18T01:10:49;30.87;;;15.07;;
35243;SDS011;37916;52.160;21.066;2022-12-18T01:20:50;28.57;;;14.93;;
35243;SDS011;37916;52.160;21.066;2022-12-18T01:30:51;29.57;;;15.40;;
35243;SDS011;37916;52.160;21.066;2022-12-18T01:40:56;26.42;;;12.88;;
35243;SDS011;37916;52.160;21.066;2022-12-18T01:51:01;30.90;;;15.80;;
35243;SDS011;37916;52.160;21.066;2022-12-18T02:01:02;26.23;;;14.10;;
35243;SDS011;37916;52.160;21.066;2022-12-18T02:11:07;26.87;;;13.50;;
35243;SDS011;37916;52.160;21.066;2022-12-18T02:31:52;24.97;;;13.27;;
35243;SDS011;37916;52.160;21.066;2022-12-18T02:41:56;29.33;;;14.10;;
35243;SDS011;37916;52.160;21.066;2022-12-18T03:12:40;28.93;;;13.67;;
35243;SDS011;37916;52.160;21.066;2022-12-18T03:23:09;28.60;;;13.70;;
35243;SDS011;37916;52.160;21.066;2022-12-18T03:34:09;29.07;;;14.00;;
35243;SDS011;37916;52.160;21.066;2022-12-18T03:54:40;34.87;;;16.30;;
35243;SDS011;37916;52.160;21.066;2022-12-18T04:04:45;32.53;;;13.53;;
35243;SDS011;37916;52.160;21.066;2022-12-18T04:14:48;30.55;;;14.98;;
35243;SDS011;37916;52.160;21.066;2022-12-18T04:24:49;30.33;;;13.37;;
35243;SDS011;37916;52.160;21.066;2022-12-18T04:34:50;32.97;;;13.55;;
35243;SDS011;37916;52.160;21.066;2022-12-18T04:45:25;27.40;;;12.73;;
35243;SDS011;37916;52.160;21.066;2022-12-18T04:55:46;26.73;;;11.80;;
35243;SDS011;37916;52.160;21.066;2022-12-18T05:06:09;25.80;;;12.03;;
35243;SDS011;37916;52.160;21.066;2022-12-18T05:16:34;32.43;;;13.20;;
35243;SDS011;37916;52.160;21.066;2022-12-18T05:27:09;25.70;;;11.93;;
35243;SDS011;37916;52.160;21.066;2022-12-18T05:37:32;25.00;;;11.67;;
35243;SDS011;37916;52.160;21.066;2022-12-18T05:47:56;26.87;;;11.47;;
35243;SDS011;37916;52.160;21.066;2022-12-18T05:58:29;32.30;;;12.70;;
35243;SDS011;37916;52.160;21.066;2022-12-18T06:08:30;33.70;;;14.57;;
35243;SDS011;37916;52.160;21.066;2022-12-18T06:18:37;35.57;;;15.73;;
35243;SDS011;37916;52.160;21.066;2022-12-18T06:29:18;35.00;;;15.17;;
35243;SDS011;37916;52.160;21.066;2022-12-18T06:50:22;42.27;;;16.93;;
35243;SDS011;37916;52.160;21.066;2022-12-18T07:00:53;42.97;;;16.37;;
35243;SDS011;37916;52.160;21.066;2022-12-18T07:11:21;31.17;;;14.43;;
35243;SDS011;37916;52.160;21.066;2022-12-18T07:21:32;37.07;;;15.83;;
35243;SDS011;37916;52.160;21.066;2022-12-18T07:31:33;35.67;;;14.97;;
35243;SDS011;37916;52.160;21.066;2022-12-18T07:41:41;37.63;;;16.77;;
35243;SDS011;37916;52.160;21.066;2022-12-18T07:52:08;37.60;;;15.60;;
35243;SDS011;37916;52.160;21.066;2022-12-18T08:02:09;36.03;;;14.40;;
35243;SDS011;37916;52.160;21.066;2022-12-18T08:12:10;36.50;;;16.33;;
35243;SDS011;37916;52.160;21.066;2022-12-18T08:22:11;40.00;;;16.00;;
35243;SDS011;37916;52.160;21.066;2022-12-18T08:32:11;35.23;;;16.23;;
35243;SDS011;37916;52.160;21.066;2022-12-18T08:42:12;34.60;;;15.73;;
35243;SDS011;37916;52.160;21.066;2022-12-18T08:52:37;36.33;;;15.23;;
35243;SDS011;37916;52.160;21.066;2022-12-18T09:02:44;31.73;;;14.13;;
35243;SDS011;37916;52.160;21.066;2022-12-18T09:12:45;39.00;;;16.00;;
35243;SDS011;37916;52.160;21.066;2022-12-18T09:22:45;35.90;;;16.60;;
35243;SDS011;37916;52.160;21.066;2022-12-18T09:32:55;39.23;;;18.10;;
35243;SDS011;37916;52.160;21.066;2022-12-18T09:43:00;40.50;;;17.37;;
35243;SDS011;37916;52.160;21.066;2022-12-18T10:24:39;40.08;;;19.85;;
35243;SDS011;37916;52.160;21.066;2022-12-18T10:34:53;50.42;;;24.05;;
35243;SDS011;37916;52.160;21.066;2022-12-18T10:45:18;49.78;;;22.80;;
35243;SDS011;37916;52.160;21.066;2022-12-18T11:16:23;42.38;;;20.27;;
35243;SDS011;37916;52.160;21.066;2022-12-18T11:46:46;47.28;;;20.65;;
35243;SDS011;37916;52.160;21.066;2022-12-18T12:07:57;44.92;;;19.20;;
35243;SDS011;37916;52.160;21.066;2022-12-18T12:29:00;46.00;;;18.90;;
35243;SDS011;37916;52.160;21.066;2022-12-18T12:39:37;46.63;;;21.10;;
35243;SDS011;37916;52.160;21.066;2022-12-18T12:49:41;45.28;;;19.40;;
35243;SDS011;37916;52.160;21.066;2022-12-18T13:20:22;41.33;;;20.00;;
35243;SDS011;37916;52.160;21.066;2022-12-18T13:50:55;43.30;;;19.43;;
35243;SDS011;37916;52.160;21.066;2022-12-18T14:00:59;39.87;;;18.57;;
35243;SDS011;37916;52.160;21.066;2022-12-18T14:11:01;42.30;;;19.53;;
35243;SDS011;37916;52.160;21.066;2022-12-18T14:21:05;40.13;;;18.07;;
35243;SDS011;37916;52.160;21.066;2022-12-18T14:31:16;38.33;;;17.60;;
35243;SDS011;37916;52.160;21.066;2022-12-18T14:41:18;43.38;;;17.42;;
35243;SDS011;37916;52.160;21.066;2022-12-18T14:51:24;42.10;;;18.00;;
35243;SDS011;37916;52.160;21.066;2022-12-18T15:01:46;39.53;;;18.37;;
35243;SDS011;37916;52.160;21.066;2022-12-18T15:23:11;39.37;;;17.67;;
35243;SDS011;37916;52.160;21.066;2022-12-18T15:33:22;41.33;;;17.50;;
35243;SDS011;37916;52.160;21.066;2022-12-18T15:43:26;44.15;;;20.48;;
35243;SDS011;37916;52.160;21.066;2022-12-18T15:53:34;35.20;;;16.23;;
35243;SDS011;37916;52.160;21.066;2022-12-18T16:03:34;35.70;;;16.77;;
35243;SDS011;37916;52.160;21.066;2022-12-18T16:13:35;36.25;;;16.60;;
35243;SDS011;37916;52.160;21.066;2022-12-18T16:23:36;32.97;;;14.33;;
35243;SDS011;37916;52.160;21.066;2022-12-18T16:33:36;39.28;;;17.83;;
35243;SDS011;37916;52.160;21.066;2022-12-18T16:43:37;40.80;;;18.10;;
35243;SDS011;37916;52.160;21.066;2022-12-18T16:53:38;41.07;;;16.97;;
35243;SDS011;37916;52.160;21.066;2022-12-18T17:03:41;33.50;;;16.50;;
35243;SDS011;37916;52.160;21.066;2022-12-18T17:13:42;34.53;;;14.40;;
35243;SDS011;37916;52.160;21.066;2022-12-18T17:23:43;33.67;;;15.15;;
35243;SDS011;37916;52.160;21.066;2022-12-18T17:33:44;37.90;;;16.77;;
35243;SDS011;37916;52.160;21.066;2022-12-18T17:43:52;35.85;;;16.30;;
35243;SDS011;37916;52.160;21.066;2022-12-18T17:53:57;35.47;;;17.38;;
35243;SDS011;37916;52.160;21.066;2022-12-18T18:03:58;34.33;;;15.53;;
35243;SDS011;37916;52.160;21.066;2022-12-18T18:14:01;40.70;;;17.70;;
35243;SDS011;37916;52.160;21.066;2022-12-18T18:24:05;28.93;;;13.20;;
35243;SDS011;37916;52.160;21.066;2022-12-18T18:34:06;36.67;;;16.90;;
35243;SDS011;37916;52.160;21.066;2022-12-18T18:44:10;42.97;;;17.43;;
35243;SDS011;37916;52.160;21.066;2022-12-18T18:54:17;39.27;;;19.07;;
35243;SDS011;37916;52.160;21.066;2022-12-18T19:04:31;35.77;;;16.03;;
35243;SDS011;37916;52.160;21.066;2022-12-18T19:14:38;36.20;;;16.57;;
35243;SDS011;37916;52.160;21.066;2022-12-18T19:24:39;39.83;;;17.20;;
35243;SDS011;37916;52.160;21.066;2022-12-18T19:34:40;34.63;;;14.93;;
35243;SDS011;37916;52.160;21.066;2022-12-18T19:44:40;34.13;;;13.97;;
35243;SDS011;37916;52.160;21.066;2022-12-18T19:54:41;31.67;;;14.73;;
35243;SDS011;37916;52.160;21.066;2022-12-18T20:04:42;29.73;;;13.47;;
35243;SDS011;37916;52.160;21.066;2022-12-18T20:14:42;29.63;;;13.80;;
35243;SDS011;37916;52.160;21.066;2022-12-18T20:24:43;29.43;;;13.40;;
35243;SDS011;37916;52.160;21.066;2022-12-18T20:34:50;22.93;;;10.53;;
35243;SDS011;37916;52.160;21.066;2022-12-18T20:44:59;25.97;;;12.37;;
35243;SDS011;37916;52.160;21.066;2022-12-18T20:55:00;33.30;;;13.17;;
35243;SDS011;37916;52.160;21.066;2022-12-18T21:05:01;27.77;;;12.67;;
35243;SDS011;37916;52.160;21.066;2022-12-18T21:15:03;27.03;;;12.67;;
35243;SDS011;37916;52.160;21.066;2022-12-18T21:25:07;28.73;;;13.13;;
35243;SDS011;37916;52.160;21.066;2022-12-18T21:35:08;30.10;;;12.80;;
35243;SDS011;37916;52.160;21.066;2022-12-18T21:45:11;29.30;;;13.87;;
35243;SDS011;37916;52.160;21.066;2022-12-18T21:55:15;35.45;;;14.07;;
35243;SDS011;37916;52.160;21.066;2022-12-18T22:05:16;28.80;;;14.70;;
35243;SDS011;37916;52.160;21.066;2022-12-18T22:15:17;33.87;;;16.20;;
35243;SDS011;37916;52.160;21.066;2022-12-18T22:25:17;28.53;;;13.37;;
35243;SDS011;37916;52.160;21.066;2022-12-18T22:35:18;31.35;;;14.35;;
35243;SDS011;37916;52.160;21.066;2022-12-18T22:45:19;27.63;;;11.97;;
35243;SDS011;37916;52.160;21.066;2022-12-18T22:55:20;27.63;;;12.00;;
35243;SDS011;37916;52.160;21.066;2022-12-18T23:05:20;23.26;;;10.14;;
35243;SDS011;37916;52.160;21.066;2022-12-18T23:15:21;22.07;;;9.77;;
35243;SDS011;37916;52.160;21.066;2022-12-18T23:25:22;23.40;;;10.73;;
35243;SDS011;37916;52.160;21.066;2022-12-18T23:35:22;22.50;;;10.43;;
35243;SDS011;37916;52.160;21.066;2022-12-18T23:45:23;21.70;;;9.70;;
35243;SDS011;37916;52.160;21.066;2022-12-18T23:55:24;20.13;;;8.93;;
